Terminal Aerodrome Forecast
Issued by NWS

Home | Current Version | Previous Version | Text Only | Print | Product List | Glossary On
Versions: 1 2 3 4 5 6 7 8 9 10 11 12 13
000
FTUS43 KGRB 061147
TAFCWA
TAF
KCWA 061147Z 0612/0712 26006KT P6SM SCT200 WS020/29030KT
     FM061600 24010G16KT P6SM SCT100 SCT200
     FM070100 24008KT P6SM VCSH BKN100
     FM070300 25007KT P6SM VCSH BKN050 PROB30 0703/0708 3SM -TSRA
      BKN025CB
     FM070800 33010KT P6SM VCSH SCT030 BKN050=

USA.gov is the U.S. government's official web portal to all federal, state and local government web resources and services.